sensor_id;sensor_type;location;lat;lon;timestamp;temperature;humidity
7920;DHT22;18778;47.610;9.776;2023-09-19T00:05:36;16.10;99.90
7920;DHT22;18778;47.610;9.776;2023-09-19T00:08:04;16.20;99.90
7920;DHT22;18778;47.610;9.776;2023-09-19T00:10:30;16.20;99.90
7920;DHT22;18778;47.610;9.776;2023-09-19T00:12:58;16.50;99.90
7920;DHT22;18778;47.610;9.776;2023-09-19T00:17:58;16.10;99.90
7920;DHT22;18778;47.610;9.776;2023-09-19T00:20:24;16.20;99.90
7920;DHT22;18778;47.610;9.776;2023-09-19T00:22:50;16.10;99.90
7920;DHT22;18778;47.610;9.776;2023-09-19T00:25:22;16.00;99.90
7920;DHT22;18778;47.610;9.776;2023-09-19T00:30:16;16.00;99.90
7920;DHT22;18778;47.610;9.776;2023-09-19T00:32:46;15.90;99.90
7920;DHT22;18778;47.610;9.776;2023-09-19T00:40:08;16.00;99.90
7920;DHT22;18778;47.610;9.776;2023-09-19T00:45:07;15.80;99.90
7920;DHT22;18778;47.610;9.776;2023-09-19T00:59:49;15.60;99.90
7920;DHT22;18778;47.610;9.776;2023-09-19T01:12:04;15.40;99.90
7920;DHT22;18778;47.610;9.776;2023-09-19T01:14:54;15.40;99.90
7920;DHT22;18778;47.610;9.776;2023-09-19T01:20:15;15.50;99.90
7920;DHT22;18778;47.610;9.776;2023-09-19T01:28:24;15.40;99.90
7920;DHT22;18778;47.610;9.776;2023-09-19T01:30:58;15.40;99.90
7920;DHT22;18778;47.610;9.776;2023-09-19T01:51:09;15.70;99.90
7920;DHT22;18778;47.610;9.776;2023-09-19T01:56:15;15.80;99.90
7920;DHT22;18778;47.610;9.776;2023-09-19T01:58:53;15.80;99.90
7920;DHT22;18778;47.610;9.776;2023-09-19T02:01:23;15.80;99.90
7920;DHT22;18778;47.610;9.776;2023-09-19T02:06:17;15.70;99.90
7920;DHT22;18778;47.610;9.776;2023-09-19T02:13:37;15.80;99.90
7920;DHT22;18778;47.610;9.776;2023-09-19T02:18:30;15.80;99.90
7920;DHT22;18778;47.610;9.776;2023-09-19T02:20:56;15.80;99.90
7920;DHT22;18778;47.610;9.776;2023-09-19T02:23:24;15.80;99.90
7920;DHT22;18778;47.610;9.776;2023-09-19T02:25:57;15.80;99.90
7920;DHT22;18778;47.610;9.776;2023-09-19T02:33:23;15.70;99.90
7920;DHT22;18778;47.610;9.776;2023-09-19T02:35:49;16.30;99.90
7920;DHT22;18778;47.610;9.776;2023-09-19T02:38:14;15.60;99.90
7920;DHT22;18778;47.610;9.776;2023-09-19T02:40:43;15.60;99.90
7920;DHT22;18778;47.610;9.776;2023-09-19T02:43:09;15.60;99.90
7920;DHT22;18778;47.610;9.776;2023-09-19T02:48:01;15.70;99.90
7920;DHT22;18778;47.610;9.776;2023-09-19T02:50:27;15.60;99.90
7920;DHT22;18778;47.610;9.776;2023-09-19T02:52:53;15.70;99.90
7920;DHT22;18778;47.610;9.776;2023-09-19T02:55:19;15.70;99.90
7920;DHT22;18778;47.610;9.776;2023-09-19T02:57:48;15.80;99.90
7920;DHT22;18778;47.610;9.776;2023-09-19T03:00:14;15.80;99.90
7920;DHT22;18778;47.610;9.776;2023-09-19T03:02:41;15.80;99.90
7920;DHT22;18778;47.610;9.776;2023-09-19T03:05:07;15.70;99.90
7920;DHT22;18778;47.610;9.776;2023-09-19T03:07:33;15.80;99.90
7920;DHT22;18778;47.610;9.776;2023-09-19T03:09:59;15.80;99.90
7920;DHT22;18778;47.610;9.776;2023-09-19T03:12:26;15.80;99.90
7920;DHT22;18778;47.610;9.776;2023-09-19T03:14:52;15.80;99.90
7920;DHT22;18778;47.610;9.776;2023-09-19T03:17:17;15.80;99.90
7920;DHT22;18778;47.610;9.776;2023-09-19T03:19:45;15.80;99.90
7920;DHT22;18778;47.610;9.776;2023-09-19T03:22:11;15.80;99.90
7920;DHT22;18778;47.610;9.776;2023-09-19T03:24:37;15.80;99.90
7920;DHT22;18778;47.610;9.776;2023-09-19T03:27:03;15.90;99.90
7920;DHT22;18778;47.610;9.776;2023-09-19T03:29:29;15.90;99.90
7920;DHT22;18778;47.610;9.776;2023-09-19T03:36:47;16.00;99.90
7920;DHT22;18778;47.610;9.776;2023-09-19T03:41:41;16.00;99.90
7920;DHT22;18778;47.610;9.776;2023-09-19T03:44:07;16.00;99.90
7920;DHT22;18778;47.610;9.776;2023-09-19T03:49:00;16.00;99.90
7920;DHT22;18778;47.610;9.776;2023-09-19T03:51:26;16.00;99.90
7920;DHT22;18778;47.610;9.776;2023-09-19T03:56:17;16.10;99.90
7920;DHT22;18778;47.610;9.776;2023-09-19T03:58:43;16.00;99.90
7920;DHT22;18778;47.610;9.776;2023-09-19T04:01:08;16.10;99.90
7920;DHT22;18778;47.610;9.776;2023-09-19T04:03:35;16.20;99.90
7920;DHT22;18778;47.610;9.776;2023-09-19T04:06:12;16.10;99.90
7920;DHT22;18778;47.610;9.776;2023-09-19T05:08:33;15.80;99.90
7920;DHT22;18778;47.610;9.776;2023-09-19T05:11:02;15.80;99.90
7920;DHT22;18778;47.610;9.776;2023-09-19T05:13:27;15.80;99.90
7920;DHT22;18778;47.610;9.776;2023-09-19T05:18:19;15.80;99.90
7920;DHT22;18778;47.610;9.776;2023-09-19T05:20:44;15.80;99.90
7920;DHT22;18778;47.610;9.776;2023-09-19T05:23:10;15.80;99.90
7920;DHT22;18778;47.610;9.776;2023-09-19T05:25:39;15.90;99.90
7920;DHT22;18778;47.610;9.776;2023-09-19T05:28:06;16.00;99.90
7920;DHT22;18778;47.610;9.776;2023-09-19T05:30:33;16.00;99.90
7920;DHT22;18778;47.610;9.776;2023-09-19T05:35:25;16.00;99.90
7920;DHT22;18778;47.610;9.776;2023-09-19T05:37:52;16.10;99.90
7920;DHT22;18778;47.610;9.776;2023-09-19T05:40:18;18.90;99.90
7920;DHT22;18778;47.610;9.776;2023-09-19T05:42:44;16.10;99.90
7920;DHT22;18778;47.610;9.776;2023-09-19T05:45:10;16.10;99.90
7920;DHT22;18778;47.610;9.776;2023-09-19T05:47:41;17.70;99.90
7920;DHT22;18778;47.610;9.776;2023-09-19T05:50:09;16.10;99.90
7920;DHT22;18778;47.610;9.776;2023-09-19T05:52:35;16.20;99.90
7920;DHT22;18778;47.610;9.776;2023-09-19T05:55:05;16.30;99.90
7920;DHT22;18778;47.610;9.776;2023-09-19T05:57:35;16.20;99.90
7920;DHT22;18778;47.610;9.776;2023-09-19T06:00:01;16.00;99.90
7920;DHT22;18778;47.610;9.776;2023-09-19T06:07:24;16.30;99.90
7920;DHT22;18778;47.610;9.776;2023-09-19T06:09:52;16.30;99.90
7920;DHT22;18778;47.610;9.776;2023-09-19T06:14:45;16.30;99.90
7920;DHT22;18778;47.610;9.776;2023-09-19T06:22:02;16.30;99.90
7920;DHT22;18778;47.610;9.776;2023-09-19T06:24:29;16.20;99.90
7920;DHT22;18778;47.610;9.776;2023-09-19T06:26:54;17.00;99.90
7920;DHT22;18778;47.610;9.776;2023-09-19T06:29:20;16.30;99.90
7920;DHT22;18778;47.610;9.776;2023-09-19T06:34:14;16.30;99.90
7920;DHT22;18778;47.610;9.776;2023-09-19T06:39:10;16.50;99.90
7920;DHT22;18778;47.610;9.776;2023-09-19T06:41:37;16.50;99.90
7920;DHT22;18778;47.610;9.776;2023-09-19T06:44:04;16.80;99.90
7920;DHT22;18778;47.610;9.776;2023-09-19T06:51:26;16.90;99.90
7920;DHT22;18778;47.610;9.776;2023-09-19T06:58:48;17.50;99.90
7920;DHT22;18778;47.610;9.776;2023-09-19T07:01:14;17.60;99.90
7920;DHT22;18778;47.610;9.776;2023-09-19T07:06:06;17.90;99.90
7920;DHT22;18778;47.610;9.776;2023-09-19T07:08:34;19.00;99.90
7920;DHT22;18778;47.610;9.776;2023-09-19T07:10:59;18.00;99.90
7920;DHT22;18778;47.610;9.776;2023-09-19T07:13:25;18.00;99.90
7920;DHT22;18778;47.610;9.776;2023-09-19T07:20:44;17.80;99.90
7920;DHT22;18778;47.610;9.776;2023-09-19T07:23:17;17.80;99.90
7920;DHT22;18778;47.610;9.776;2023-09-19T07:28:09;17.80;99.90
7920;DHT22;18778;47.610;9.776;2023-09-19T07:30:38;17.70;99.90
7920;DHT22;18778;47.610;9.776;2023-09-19T07:33:05;17.80;99.90
7920;DHT22;18778;47.610;9.776;2023-09-19T07:35:31;19.50;99.90
7920;DHT22;18778;47.610;9.776;2023-09-19T07:37:57;17.80;99.90
7920;DHT22;18778;47.610;9.776;2023-09-19T07:40:24;17.70;99.90
7920;DHT22;18778;47.610;9.776;2023-09-19T07:42:52;18.60;99.90
7920;DHT22;18778;47.610;9.776;2023-09-19T07:45:18;17.60;99.90
7920;DHT22;18778;47.610;9.776;2023-09-19T07:47:47;17.60;99.90
7920;DHT22;18778;47.610;9.776;2023-09-19T07:50:14;17.60;99.90
7920;DHT22;18778;47.610;9.776;2023-09-19T07:52:41;17.60;99.90
7920;DHT22;18778;47.610;9.776;2023-09-19T08:00:01;18.00;99.90
7920;DHT22;18778;47.610;9.776;2023-09-19T08:02:33;18.20;99.90
7920;DHT22;18778;47.610;9.776;2023-09-19T08:07:26;18.30;99.90
7920;DHT22;18778;47.610;9.776;2023-09-19T08:09:54;18.40;99.90
7920;DHT22;18778;47.610;9.776;2023-09-19T08:12:19;18.80;99.90
7920;DHT22;18778;47.610;9.776;2023-09-19T08:14:49;18.70;99.90
7920;DHT22;18778;47.610;9.776;2023-09-19T08:17:15;19.00;99.90
7920;DHT22;18778;47.610;9.776;2023-09-19T08:22:10;18.90;99.90
7920;DHT22;18778;47.610;9.776;2023-09-19T08:24:36;19.20;99.90
7920;DHT22;18778;47.610;9.776;2023-09-19T08:27:04;18.80;99.90
7920;DHT22;18778;47.610;9.776;2023-09-19T08:29:31;18.60;99.90
7920;DHT22;18778;47.610;9.776;2023-09-19T08:31:57;18.60;99.90
7920;DHT22;18778;47.610;9.776;2023-09-19T08:34:24;19.00;99.90
7920;DHT22;18778;47.610;9.776;2023-09-19T08:36:54;18.40;99.90
7920;DHT22;18778;47.610;9.776;2023-09-19T08:39:23;18.40;99.90
7920;DHT22;18778;47.610;9.776;2023-09-19T08:41:49;18.20;99.90
7920;DHT22;18778;47.610;9.776;2023-09-19T08:44:15;18.10;99.90
7920;DHT22;18778;47.610;9.776;2023-09-19T08:46:42;18.00;99.90
7920;DHT22;18778;47.610;9.776;2023-09-19T08:49:36;18.00;99.90
7920;DHT22;18778;47.610;9.776;2023-09-19T08:52:10;18.10;99.90
7920;DHT22;18778;47.610;9.776;2023-09-19T08:54:39;18.20;99.90
7920;DHT22;18778;47.610;9.776;2023-09-19T08:57:07;19.80;99.90
7920;DHT22;18778;47.610;9.776;2023-09-19T08:59:40;19.40;99.90
7920;DHT22;18778;47.610;9.776;2023-09-19T09:02:12;19.80;99.90
7920;DHT22;18778;47.610;9.776;2023-09-19T09:04:40;19.60;99.90
7920;DHT22;18778;47.610;9.776;2023-09-19T09:07:13;19.70;99.90
7920;DHT22;18778;47.610;9.776;2023-09-19T09:09:40;19.50;99.90
7920;DHT22;18778;47.610;9.776;2023-09-19T09:12:13;19.40;99.90
7920;DHT22;18778;47.610;9.776;2023-09-19T09:14:46;19.40;99.90
7920;DHT22;18778;47.610;9.776;2023-09-19T09:17:15;20.00;99.90
7920;DHT22;18778;47.610;9.776;2023-09-19T09:19:43;20.10;99.90
7920;DHT22;18778;47.610;9.776;2023-09-19T09:24:37;20.50;99.90
7920;DHT22;18778;47.610;9.776;2023-09-19T09:27:06;20.70;99.90
7920;DHT22;18778;47.610;9.776;2023-09-19T09:29:49;20.70;99.90
7920;DHT22;18778;47.610;9.776;2023-09-19T09:34:44;21.00;99.90
7920;DHT22;18778;47.610;9.776;2023-09-19T09:37:17;20.80;99.90
7920;DHT22;18778;47.610;9.776;2023-09-19T09:39:52;21.40;99.90
7920;DHT22;18778;47.610;9.776;2023-09-19T09:42:30;21.40;99.90
7920;DHT22;18778;47.610;9.776;2023-09-19T09:45:16;21.30;99.90
7920;DHT22;18778;47.610;9.776;2023-09-19T09:47:54;21.30;99.90
7920;DHT22;18778;47.610;9.776;2023-09-19T09:50:35;21.40;99.90
7920;DHT22;18778;47.610;9.776;2023-09-19T09:53:29;21.60;99.90
7920;DHT22;18778;47.610;9.776;2023-09-19T09:56:06;22.00;99.90
7920;DHT22;18778;47.610;9.776;2023-09-19T09:58:33;22.30;99.90
7920;DHT22;18778;47.610;9.776;2023-09-19T10:01:01;22.50;99.90
7920;DHT22;18778;47.610;9.776;2023-09-19T10:03:38;22.20;99.90
7920;DHT22;18778;47.610;9.776;2023-09-19T10:06:13;21.80;99.90
7920;DHT22;18778;47.610;9.776;2023-09-19T10:14:14;21.20;99.90
7920;DHT22;18778;47.610;9.776;2023-09-19T10:16:45;21.00;99.90
7920;DHT22;18778;47.610;9.776;2023-09-19T10:19:23;20.80;99.90
7920;DHT22;18778;47.610;9.776;2023-09-19T10:21:50;20.80;99.90
7920;DHT22;18778;47.610;9.776;2023-09-19T10:24:19;21.00;99.90
7920;DHT22;18778;47.610;9.776;2023-09-19T10:26:46;20.70;99.90
7920;DHT22;18778;47.610;9.776;2023-09-19T10:29:14;20.40;99.90
7920;DHT22;18778;47.610;9.776;2023-09-19T10:31:42;20.10;99.90
7920;DHT22;18778;47.610;9.776;2023-09-19T10:34:14;19.80;99.90
7920;DHT22;18778;47.610;9.776;2023-09-19T10:36:44;20.60;99.90
7920;DHT22;18778;47.610;9.776;2023-09-19T10:39:11;19.40;99.90
7920;DHT22;18778;47.610;9.776;2023-09-19T10:41:39;19.40;99.90
7920;DHT22;18778;47.610;9.776;2023-09-19T10:44:04;19.30;99.90
7920;DHT22;18778;47.610;9.776;2023-09-19T10:46:32;19.40;99.90
7920;DHT22;18778;47.610;9.776;2023-09-19T10:49:02;19.70;99.90
7920;DHT22;18778;47.610;9.776;2023-09-19T10:51:40;19.10;99.90
7920;DHT22;18778;47.610;9.776;2023-09-19T10:54:16;19.40;99.90
7920;DHT22;18778;47.610;9.776;2023-09-19T10:56:46;19.90;99.90
7920;DHT22;18778;47.610;9.776;2023-09-19T10:59:19;20.90;99.90
7920;DHT22;18778;47.610;9.776;2023-09-19T11:01:47;21.60;99.90
7920;DHT22;18778;47.610;9.776;2023-09-19T11:04:28;22.00;99.90
7920;DHT22;18778;47.610;9.776;2023-09-19T11:07:01;22.60;99.90
7920;DHT22;18778;47.610;9.776;2023-09-19T11:15:02;22.80;99.90
7920;DHT22;18778;47.610;9.776;2023-09-19T11:17:35;22.60;99.90
7920;DHT22;18778;47.610;9.776;2023-09-19T11:30:52;21.90;99.90
7920;DHT22;18778;47.610;9.776;2023-09-19T11:33:30;21.80;99.90
7920;DHT22;18778;47.610;9.776;2023-09-19T11:36:06;21.80;99.90
7920;DHT22;18778;47.610;9.776;2023-09-19T11:43:52;21.70;99.90
7920;DHT22;18778;47.610;9.776;2023-09-19T11:48:51;21.40;99.90
7920;DHT22;18778;47.610;9.776;2023-09-19T11:51:21;21.20;99.90
7920;DHT22;18778;47.610;9.776;2023-09-19T11:53:50;21.20;99.90
7920;DHT22;18778;47.610;9.776;2023-09-19T11:56:17;21.10;99.90
7920;DHT22;18778;47.610;9.776;2023-09-19T11:58:44;21.10;99.90
7920;DHT22;18778;47.610;9.776;2023-09-19T12:01:13;21.00;99.90
7920;DHT22;18778;47.610;9.776;2023-09-19T12:03:42;20.80;99.90
7920;DHT22;18778;47.610;9.776;2023-09-19T12:06:16;20.80;99.90
7920;DHT22;18778;47.610;9.776;2023-09-19T12:08:43;20.90;99.90
7920;DHT22;18778;47.610;9.776;2023-09-19T12:11:15;21.00;99.90
7920;DHT22;18778;47.610;9.776;2023-09-19T12:13:46;21.10;99.90
7920;DHT22;18778;47.610;9.776;2023-09-19T12:16:17;21.50;99.90
7920;DHT22;18778;47.610;9.776;2023-09-19T12:18:44;22.00;99.90
7920;DHT22;18778;47.610;9.776;2023-09-19T12:24:13;22.20;99.90
7920;DHT22;18778;47.610;9.776;2023-09-19T12:26:43;22.70;99.90
7920;DHT22;18778;47.610;9.776;2023-09-19T12:29:17;23.10;99.90
7920;DHT22;18778;47.610;9.776;2023-09-19T12:31:58;23.20;99.90
7920;DHT22;18778;47.610;9.776;2023-09-19T12:34:29;22.90;99.90
7920;DHT22;18778;47.610;9.776;2023-09-19T12:37:14;22.70;99.90
7920;DHT22;18778;47.610;9.776;2023-09-19T12:40:09;22.90;99.90
7920;DHT22;18778;47.610;9.776;2023-09-19T12:42:46;23.50;99.90
7920;DHT22;18778;47.610;9.776;2023-09-19T12:45:12;23.90;99.90
7920;DHT22;18778;47.610;9.776;2023-09-19T12:47:40;24.50;99.90
7920;DHT22;18778;47.610;9.776;2023-09-19T12:50:15;25.00;99.90
7920;DHT22;18778;47.610;9.776;2023-09-19T12:52:52;24.50;99.90
7920;DHT22;18778;47.610;9.776;2023-09-19T12:55:22;25.00;99.90
7920;DHT22;18778;47.610;9.776;2023-09-19T12:58:19;25.30;99.90
7920;DHT22;18778;47.610;9.776;2023-09-19T13:00:45;25.90;99.90
7920;DHT22;18778;47.610;9.776;2023-09-19T13:06:07;27.40;99.90
7920;DHT22;18778;47.610;9.776;2023-09-19T13:08:37;27.90;99.90
7920;DHT22;18778;47.610;9.776;2023-09-19T13:11:12;28.20;99.90
7920;DHT22;18778;47.610;9.776;2023-09-19T13:13:43;28.20;99.90
7920;DHT22;18778;47.610;9.776;2023-09-19T13:16:19;28.40;99.90
7920;DHT22;18778;47.610;9.776;2023-09-19T13:18:51;28.80;99.90
7920;DHT22;18778;47.610;9.776;2023-09-19T13:21:34;28.90;99.90
7920;DHT22;18778;47.610;9.776;2023-09-19T13:24:23;29.30;99.90
7920;DHT22;18778;47.610;9.776;2023-09-19T13:26:53;29.00;99.00
7920;DHT22;18778;47.610;9.776;2023-09-19T13:29:19;28.30;99.90
7920;DHT22;18778;47.610;9.776;2023-09-19T13:31:48;28.30;99.90
7920;DHT22;18778;47.610;9.776;2023-09-19T13:34:15;28.80;99.90
7920;DHT22;18778;47.610;9.776;2023-09-19T13:36:44;29.40;99.90
7920;DHT22;18778;47.610;9.776;2023-09-19T13:39:10;29.90;99.30
7920;DHT22;18778;47.610;9.776;2023-09-19T13:41:38;30.40;97.50
7920;DHT22;18778;47.610;9.776;2023-09-19T13:44:05;30.10;97.60
7920;DHT22;18778;47.610;9.776;2023-09-19T13:46:31;30.10;96.60
7920;DHT22;18778;47.610;9.776;2023-09-19T13:49:00;30.40;97.30
7920;DHT22;18778;47.610;9.776;2023-09-19T13:51:29;31.00;94.70
7920;DHT22;18778;47.610;9.776;2023-09-19T13:53:55;31.00;95.00
7920;DHT22;18778;47.610;9.776;2023-09-19T13:56:21;31.40;93.60
7920;DHT22;18778;47.610;9.776;2023-09-19T13:58:47;31.30;94.20
7920;DHT22;18778;47.610;9.776;2023-09-19T14:01:12;29.50;94.20
7920;DHT22;18778;47.610;9.776;2023-09-19T14:03:39;29.40;94.20
7920;DHT22;18778;47.610;9.776;2023-09-19T14:06:05;28.60;97.60
7920;DHT22;18778;47.610;9.776;2023-09-19T14:08:31;28.50;96.00
7920;DHT22;18778;47.610;9.776;2023-09-19T14:10:59;27.70;97.20
7920;DHT22;18778;47.610;9.776;2023-09-19T14:13:24;27.10;99.10
7920;DHT22;18778;47.610;9.776;2023-09-19T14:15:51;26.00;99.60
7920;DHT22;18778;47.610;9.776;2023-09-19T14:18:16;26.00;99.90
7920;DHT22;18778;47.610;9.776;2023-09-19T14:20:44;25.50;99.90
7920;DHT22;18778;47.610;9.776;2023-09-19T14:23:09;25.20;99.90
7920;DHT22;18778;47.610;9.776;2023-09-19T14:25:36;25.10;99.90
7920;DHT22;18778;47.610;9.776;2023-09-19T14:28:03;25.00;99.90
7920;DHT22;18778;47.610;9.776;2023-09-19T14:30:29;25.00;99.90
7920;DHT22;18778;47.610;9.776;2023-09-19T14:32:55;24.90;99.90
7920;DHT22;18778;47.610;9.776;2023-09-19T14:35:21;25.10;99.90
7920;DHT22;18778;47.610;9.776;2023-09-19T14:37:48;25.00;99.90
7920;DHT22;18778;47.610;9.776;2023-09-19T14:40:14;25.00;99.90
7920;DHT22;18778;47.610;9.776;2023-09-19T14:42:43;24.90;99.90
7920;DHT22;18778;47.610;9.776;2023-09-19T14:45:10;24.80;99.90
7920;DHT22;18778;47.610;9.776;2023-09-19T14:47:37;24.70;99.90
7920;DHT22;18778;47.610;9.776;2023-09-19T14:50:03;24.70;99.90
7920;DHT22;18778;47.610;9.776;2023-09-19T14:52:35;24.60;99.90
7920;DHT22;18778;47.610;9.776;2023-09-19T14:55:02;24.70;99.90
7920;DHT22;18778;47.610;9.776;2023-09-19T14:57:27;24.90;99.90
7920;DHT22;18778;47.610;9.776;2023-09-19T14:59:53;25.10;99.90
7920;DHT22;18778;47.610;9.776;2023-09-19T15:02:20;25.10;99.90
7920;DHT22;18778;47.610;9.776;2023-09-19T15:04:46;25.20;99.90
7920;DHT22;18778;47.610;9.776;2023-09-19T15:07:13;25.20;99.90
7920;DHT22;18778;47.610;9.776;2023-09-19T15:09:41;25.20;99.90
7920;DHT22;18778;47.610;9.776;2023-09-19T15:12:07;25.20;99.90
7920;DHT22;18778;47.610;9.776;2023-09-19T15:14:32;25.00;99.90
7920;DHT22;18778;47.610;9.776;2023-09-19T15:16:58;24.80;99.90
7920;DHT22;18778;47.610;9.776;2023-09-19T15:19:23;24.60;99.90
7920;DHT22;18778;47.610;9.776;2023-09-19T15:21:49;24.50;99.90
7920;DHT22;18778;47.610;9.776;2023-09-19T15:24:15;24.50;99.90
7920;DHT22;18778;47.610;9.776;2023-09-19T15:26:43;24.80;99.90
7920;DHT22;18778;47.610;9.776;2023-09-19T15:29:10;25.10;99.90
7920;DHT22;18778;47.610;9.776;2023-09-19T15:31:36;25.10;99.90
7920;DHT22;18778;47.610;9.776;2023-09-19T15:34:02;25.50;99.90
7920;DHT22;18778;47.610;9.776;2023-09-19T15:36:29;25.70;99.90
7920;DHT22;18778;47.610;9.776;2023-09-19T15:41:34;25.30;99.90
7920;DHT22;18778;47.610;9.776;2023-09-19T15:44:01;25.00;99.90
7920;DHT22;18778;47.610;9.776;2023-09-19T15:46:29;24.50;99.90
7920;DHT22;18778;47.610;9.776;2023-09-19T15:48:55;24.50;99.90
7920;DHT22;18778;47.610;9.776;2023-09-19T15:51:22;24.20;99.90
7920;DHT22;18778;47.610;9.776;2023-09-19T15:53:52;23.90;99.90
7920;DHT22;18778;47.610;9.776;2023-09-19T15:56:19;23.60;99.90
7920;DHT22;18778;47.610;9.776;2023-09-19T15:58:50;23.50;99.90
7920;DHT22;18778;47.610;9.776;2023-09-19T16:01:17;23.40;99.90
7920;DHT22;18778;47.610;9.776;2023-09-19T16:03:47;23.30;99.90
7920;DHT22;18778;47.610;9.776;2023-09-19T16:06:15;23.30;99.90
7920;DHT22;18778;47.610;9.776;2023-09-19T16:08:41;23.30;99.90
7920;DHT22;18778;47.610;9.776;2023-09-19T16:11:08;23.10;99.90
7920;DHT22;18778;47.610;9.776;2023-09-19T16:13:37;22.50;99.90
7920;DHT22;18778;47.610;9.776;2023-09-19T16:16:03;22.10;99.90
7920;DHT22;18778;47.610;9.776;2023-09-19T16:18:29;22.00;99.90
7920;DHT22;18778;47.610;9.776;2023-09-19T16:21:04;21.90;99.90
7920;DHT22;18778;47.610;9.776;2023-09-19T16:23:30;21.60;99.90
7920;DHT22;18778;47.610;9.776;2023-09-19T16:26:05;21.40;99.90
7920;DHT22;18778;47.610;9.776;2023-09-19T16:28:31;21.20;99.90
7920;DHT22;18778;47.610;9.776;2023-09-19T16:30:58;21.00;99.90
7920;DHT22;18778;47.610;9.776;2023-09-19T16:33:25;20.80;99.90
7920;DHT22;18778;47.610;9.776;2023-09-19T16:35:51;20.60;99.90
7920;DHT22;18778;47.610;9.776;2023-09-19T16:38:18;20.60;99.90
7920;DHT22;18778;47.610;9.776;2023-09-19T16:40:57;20.40;99.90
7920;DHT22;18778;47.610;9.776;2023-09-19T16:43:26;20.30;99.90
7920;DHT22;18778;47.610;9.776;2023-09-19T16:45:56;20.30;99.90
7920;DHT22;18778;47.610;9.776;2023-09-19T16:48:23;20.30;99.90
7920;DHT22;18778;47.610;9.776;2023-09-19T16:50:49;20.40;99.90
7920;DHT22;18778;47.610;9.776;2023-09-19T16:53:16;20.30;99.90
7920;DHT22;18778;47.610;9.776;2023-09-19T16:55:43;20.20;99.90
7920;DHT22;18778;47.610;9.776;2023-09-19T16:58:09;20.30;99.90
7920;DHT22;18778;47.610;9.776;2023-09-19T17:00:36;20.30;99.90
7920;DHT22;18778;47.610;9.776;2023-09-19T17:03:02;20.40;99.90
7920;DHT22;18778;47.610;9.776;2023-09-19T17:05:32;20.30;99.90
7920;DHT22;18778;47.610;9.776;2023-09-19T17:07:59;20.30;99.90
7920;DHT22;18778;47.610;9.776;2023-09-19T17:10:30;20.30;99.90
7920;DHT22;18778;47.610;9.776;2023-09-19T17:12:58;20.20;99.90
7920;DHT22;18778;47.610;9.776;2023-09-19T17:15:24;20.20;99.90
7920;DHT22;18778;47.610;9.776;2023-09-19T17:17:50;19.60;99.90
7920;DHT22;18778;47.610;9.776;2023-09-19T17:20:17;19.40;99.90
7920;DHT22;18778;47.610;9.776;2023-09-19T17:22:43;19.30;99.90
7920;DHT22;18778;47.610;9.776;2023-09-19T17:25:09;19.00;99.90
7920;DHT22;18778;47.610;9.776;2023-09-19T17:27:35;18.80;99.90
7920;DHT22;18778;47.610;9.776;2023-09-19T17:30:01;18.60;99.90
7920;DHT22;18778;47.610;9.776;2023-09-19T17:32:26;18.40;99.90
7920;DHT22;18778;47.610;9.776;2023-09-19T17:34:52;18.20;99.90
7920;DHT22;18778;47.610;9.776;2023-09-19T17:37:18;18.10;99.90
7920;DHT22;18778;47.610;9.776;2023-09-19T17:39:44;17.90;99.90
7920;DHT22;18778;47.610;9.776;2023-09-19T17:42:09;17.80;99.90
7920;DHT22;18778;47.610;9.776;2023-09-19T17:44:38;17.70;99.90
7920;DHT22;18778;47.610;9.776;2023-09-19T17:47:04;17.70;99.90
7920;DHT22;18778;47.610;9.776;2023-09-19T17:49:30;17.60;99.90
7920;DHT22;18778;47.610;9.776;2023-09-19T17:51:55;17.50;99.90
7920;DHT22;18778;47.610;9.776;2023-09-19T17:54:21;17.40;99.90
7920;DHT22;18778;47.610;9.776;2023-09-19T17:56:48;17.20;99.90
7920;DHT22;18778;47.610;9.776;2023-09-19T17:59:14;17.10;99.90
7920;DHT22;18778;47.610;9.776;2023-09-19T18:01:40;17.10;99.90
7920;DHT22;18778;47.610;9.776;2023-09-19T18:04:07;16.90;99.90
7920;DHT22;18778;47.610;9.776;2023-09-19T18:06:32;16.70;99.90
7920;DHT22;18778;47.610;9.776;2023-09-19T18:08:58;16.60;99.90
7920;DHT22;18778;47.610;9.776;2023-09-19T18:11:24;16.50;99.90
7920;DHT22;18778;47.610;9.776;2023-09-19T18:13:51;16.50;99.90
7920;DHT22;18778;47.610;9.776;2023-09-19T18:16:20;16.60;99.90
7920;DHT22;18778;47.610;9.776;2023-09-19T18:18:46;16.40;99.90
7920;DHT22;18778;47.610;9.776;2023-09-19T18:21:18;16.30;99.90
7920;DHT22;18778;47.610;9.776;2023-09-19T18:23:58;16.30;99.90
7920;DHT22;18778;47.610;9.776;2023-09-19T18:26:27;16.30;99.90
7920;DHT22;18778;47.610;9.776;2023-09-19T18:28:53;16.20;99.90
7920;DHT22;18778;47.610;9.776;2023-09-19T18:31:19;16.10;99.90
7920;DHT22;18778;47.610;9.776;2023-09-19T18:33:45;15.90;99.90
7920;DHT22;18778;47.610;9.776;2023-09-19T18:36:13;15.80;99.90
7920;DHT22;18778;47.610;9.776;2023-09-19T18:38:39;15.70;99.90
7920;DHT22;18778;47.610;9.776;2023-09-19T18:41:11;15.70;99.90
7920;DHT22;18778;47.610;9.776;2023-09-19T18:43:37;15.50;99.90
7920;DHT22;18778;47.610;9.776;2023-09-19T18:46:04;15.50;99.90
7920;DHT22;18778;47.610;9.776;2023-09-19T18:48:41;15.50;99.90
7920;DHT22;18778;47.610;9.776;2023-09-19T18:51:10;15.30;99.90
7920;DHT22;18778;47.610;9.776;2023-09-19T18:53:37;15.30;99.90
7920;DHT22;18778;47.610;9.776;2023-09-19T18:56:11;15.30;99.90
7920;DHT22;18778;47.610;9.776;2023-09-19T18:58:39;15.30;99.90
7920;DHT22;18778;47.610;9.776;2023-09-19T19:01:08;15.30;99.90
7920;DHT22;18778;47.610;9.776;2023-09-19T19:03:35;15.20;99.90
7920;DHT22;18778;47.610;9.776;2023-09-19T19:06:04;15.10;99.90
7920;DHT22;18778;47.610;9.776;2023-09-19T19:08:30;15.10;99.90
7920;DHT22;18778;47.610;9.776;2023-09-19T19:10:57;15.00;99.90
7920;DHT22;18778;47.610;9.776;2023-09-19T19:13:23;14.90;99.90
7920;DHT22;18778;47.610;9.776;2023-09-19T19:15:49;14.80;99.90
7920;DHT22;18778;47.610;9.776;2023-09-19T19:18:14;14.80;99.90
7920;DHT22;18778;47.610;9.776;2023-09-19T19:20:40;15.10;99.90
7920;DHT22;18778;47.610;9.776;2023-09-19T19:23:07;14.70;99.90
7920;DHT22;18778;47.610;9.776;2023-09-19T19:25:34;14.70;99.90
7920;DHT22;18778;47.610;9.776;2023-09-19T19:27:59;14.80;99.90
7920;DHT22;18778;47.610;9.776;2023-09-19T19:30:25;14.70;99.90
7920;DHT22;18778;47.610;9.776;2023-09-19T19:32:51;15.00;99.90
7920;DHT22;18778;47.610;9.776;2023-09-19T19:35:16;14.60;99.90
7920;DHT22;18778;47.610;9.776;2023-09-19T19:37:43;14.70;99.90
7920;DHT22;18778;47.610;9.776;2023-09-19T19:40:09;14.40;99.90
7920;DHT22;18778;47.610;9.776;2023-09-19T19:42:36;14.30;99.90
7920;DHT22;18778;47.610;9.776;2023-09-19T19:45:02;14.20;99.90
7920;DHT22;18778;47.610;9.776;2023-09-19T19:47:30;14.10;99.90
7920;DHT22;18778;47.610;9.776;2023-09-19T19:49:55;14.10;99.90
7920;DHT22;18778;47.610;9.776;2023-09-19T19:54:50;14.10;99.90
7920;DHT22;18778;47.610;9.776;2023-09-19T19:57:16;14.10;99.90
7920;DHT22;18778;47.610;9.776;2023-09-19T19:59:44;14.10;99.90
7920;DHT22;18778;47.610;9.776;2023-09-19T20:02:10;14.10;99.90
7920;DHT22;18778;47.610;9.776;2023-09-19T20:04:36;15.60;99.90
7920;DHT22;18778;47.610;9.776;2023-09-19T20:07:02;14.10;99.90